Time;durP1;ratioP1;P1;durP2;ratioP2;P2;SDS_P1;SDS_P2;PMS_P1;PMS_P2;Temp;Humidity;BMP_temperature;BMP_pressure;BME280_temperature;BME280_humidity;BME280_pressure;Samples;Min_cycle;Max_cycle;Signal;HPM_P1;HPM_P2
2022/10/11 00:01:03;;;;;;;10.98;4.97;;;12.20;99.90;;;12.55;75.19;102337.50;5035631;28;20072;-65
2022/10/11 00:03:32;;;;;;;12.43;5.57;;;12.20;99.90;;;12.61;75.02;102334.91;5035786;28;20049;-66
2022/10/11 00:06:01;;;;;;;13.73;4.82;;;12.30;99.90;;;12.62;74.90;102339.31;5035779;28;20068;-65
2022/10/11 00:08:30;;;;;;;10.70;4.90;;;12.40;99.90;;;12.74;74.85;102344.78;5035411;28;20037;-66
2022/10/11 00:11:03;;;;;;;12.32;4.95;;;12.50;99.90;;;12.74;74.38;102350.09;5035313;28;20044;-65
2022/10/11 00:13:32;;;;;;;8.77;4.60;;;12.50;99.90;;;12.70;74.85;102354.47;5035671;28;20514;-65
2022/10/11 00:16:00;;;;;;;9.50;4.57;;;12.40;99.90;;;12.68;75.02;102342.03;5035331;28;20091;-65
2022/10/11 00:18:29;;;;;;;8.25;4.38;;;12.40;99.90;;;12.69;75.39;102347.41;5034262;28;20548;-65
2022/10/11 00:21:08;;;;;;;10.40;4.60;;;12.40;99.90;;;12.65;75.60;102347.34;5035276;28;20045;-65
2022/10/11 00:23:37;;;;;;;11.50;4.80;;;12.40;99.90;;;12.69;75.97;102350.06;5035261;28;20056;-65
2022/10/11 00:26:11;;;;;;;6.47;4.20;;;12.40;99.90;;;12.61;75.95;102365.00;5035156;28;20498;-65
2022/10/11 00:28:40;;;;;;;10.68;4.93;;;12.30;99.90;;;12.59;75.62;102356.13;5034916;28;20057;-65
2022/10/11 00:31:10;;;;;;;7.30;4.47;;;12.30;99.90;;;12.55;75.77;102359.63;5034994;28;20042;-65
2022/10/11 00:33:38;;;;;;;11.53;4.57;;;12.20;99.90;;;12.57;75.57;102356.97;5035532;28;20073;-65
2022/10/11 00:36:09;;;;;;;6.15;4.25;;;12.20;99.90;;;12.53;76.18;102353.41;5034928;28;20041;-65
2022/10/11 00:38:37;;;;;;;5.95;4.10;;;12.20;99.90;;;12.57;75.97;102367.59;5035475;28;20048;-65
2022/10/11 00:41:07;;;;;;;7.50;3.90;;;12.20;99.90;;;12.49;75.96;102351.59;5034852;28;20049;-65
2022/10/11 00:43:35;;;;;;;6.57;4.43;;;12.20;99.90;;;12.47;75.92;102363.03;5034841;28;20037;-65
2022/10/11 00:46:26;;;;;;;8.50;4.40;;;12.10;99.90;;;11.87;75.79;102254.44;5034731;28;20041;-65
2022/10/11 00:49:01;;;;;;;5.28;3.78;;;12.10;99.90;;;12.42;76.59;102367.41;5034698;28;20510;-65
2022/10/11 00:51:41;;;;;;;7.20;4.22;;;12.10;99.90;;;12.49;76.57;102366.63;5034641;28;20041;-65
2022/10/11 00:54:14;;;;;;;4.53;4.07;;;12.10;99.90;;;12.40;76.49;102343.53;5034918;28;20041;-65
2022/10/11 00:56:48;;;;;;;12.13;4.70;;;12.10;99.90;;;12.58;76.33;102361.44;5034636;28;20467;-65
2022/10/11 00:59:23;;;;;;;9.98;4.68;;;12.10;99.90;;;12.70;75.89;102364.19;5034507;28;20041;-65
2022/10/11 01:01:52;;;;;;;15.23;5.40;;;12.30;99.90;;;12.63;75.47;102371.22;5035049;28;20049;-65
2022/10/11 01:04:21;;;;;;;13.73;5.32;;;12.30;99.90;;;12.42;75.16;102351.50;5034696;28;20441;-65
2022/10/11 01:06:50;;;;;;;9.75;4.53;;;12.30;99.90;;;12.45;75.50;102368.34;5034883;28;20042;-65
2022/10/11 01:09:21;;;;;;;8.32;4.30;;;12.20;99.90;;;12.29;75.44;102361.06;5034527;28;20049;-65
2022/10/11 01:11:54;;;;;;;5.72;3.72;;;12.10;99.90;;;12.23;75.99;102376.03;5033737;28;20048;-65
2022/10/11 01:14:59;;;;;;;10.40;4.40;;;11.90;99.90;;;12.14;75.80;102373.22;5033996;28;20041;-64
2022/10/11 01:17:36;;;;;;;8.30;4.00;;;11.80;99.90;;;12.09;75.81;102372.28;5030841;28;20057;-65
2022/10/11 01:20:42;;;;;;;7.97;4.45;;;11.80;99.90;;;12.11;76.04;102381.16;5033253;28;20053;-65
2022/10/11 01:24:03;;;;;;;5.07;3.70;;;11.70;99.90;;;12.09;76.13;102386.47;5034074;28;20045;-65
2022/10/11 01:27:25;;;;;;;4.80;3.65;;;11.70;99.90;;;12.05;76.30;102387.28;5033543;28;20041;-65
2022/10/11 01:30:05;;;;;;;9.75;4.00;;;11.80;99.90;;;12.09;76.68;102383.81;5032046;28;20491;-65
2022/10/11 01:32:40;;;;;;;10.40;4.82;;;11.80;99.90;;;12.11;76.69;102381.16;5033273;28;20045;-65
2022/10/11 01:35:17;;;;;;;7.78;4.25;;;11.80;99.90;;;12.08;76.64;102387.31;5033268;28;20045;-65
2022/10/11 01:37:51;;;;;;;6.05;3.35;;;11.90;99.90;;;12.02;76.59;102389.00;5033476;28;20049;-65
2022/10/11 01:40:24;;;;;;;7.88;4.10;;;11.70;99.90;;;11.88;76.94;102390.56;5033474;28;20052;-65
2022/10/11 01:42:55;;;;;;;4.47;3.17;;;11.50;99.90;;;11.88;76.88;102386.16;5033635;28;20059;-65
2022/10/11 01:45:24;;;;;;;7.65;3.67;;;11.60;99.90;;;11.87;76.80;102388.75;5033061;28;20045;-65
2022/10/11 01:48:05;;;;;;;7.93;4.18;;;11.60;99.90;;;11.86;76.57;102390.53;5033265;28;20151;-65
2022/10/11 01:50:40;;;;;;;12.00;4.72;;;11.50;99.90;;;11.99;76.46;102391.59;5033570;28;20046;-65
2022/10/11 01:54:00;;;;;;;11.13;4.40;;;11.70;99.90;;;11.93;76.70;102384.44;5032923;28;20046;-65
2022/10/11 01:56:55;;;;;;;8.90;4.10;;;11.60;99.90;;;11.87;76.48;102386.09;5022354;28;20053;-65
2022/10/11 01:59:40;;;;;;;5.72;3.92;;;11.60;99.90;;;11.81;76.54;102381.63;5032894;28;20406;-65
2022/10/11 02:02:27;;;;;;;5.32;3.20;;;11.50;99.90;;;11.74;76.77;102388.59;5032759;28;20451;-65
2022/10/11 02:05:07;;;;;;;6.90;4.45;;;11.50;99.90;;;11.71;77.42;102388.53;5032910;28;20494;-65
2022/10/11 02:07:45;;;;;;;8.38;3.88;;;11.40;99.90;;;11.66;77.50;102384.94;5032770;28;20517;-65
2022/10/11 02:10:22;;;;;;;4.47;3.40;;;11.40;99.90;;;11.46;77.41;102385.44;5032593;28;20042;-65
2022/10/11 02:12:57;;;;;;;6.00;3.20;;;11.20;99.90;;;11.56;77.56;102379.41;5032651;28;20045;-65
2022/10/11 02:15:29;;;;;;;3.75;3.45;;;11.20;99.90;;;11.58;77.46;102388.28;5032606;28;20049;-65
2022/10/11 02:18:02;;;;;;;7.50;3.80;;;11.20;99.90;;;11.50;77.57;102384.63;5032618;28;20132;-65
2022/10/11 02:20:34;;;;;;;4.35;3.45;;;11.20;99.90;;;11.53;77.69;102376.75;5032342;28;20479;-65
2022/10/11 02:23:10;;;;;;;3.33;2.90;;;11.20;99.90;;;11.46;77.34;102375.72;5032775;28;20472;-65
2022/10/11 02:25:40;;;;;;;3.05;2.90;;;11.10;99.90;;;11.43;77.22;102378.34;5032455;28;20052;-65
2022/10/11 02:28:13;;;;;;;2.80;2.63;;;11.20;99.90;;;11.37;77.63;102378.25;5032543;28;20060;-65
2022/10/11 02:30:44;;;;;;;3.35;3.00;;;11.10;99.90;;;11.37;77.63;102382.66;5032053;28;20487;-64
2022/10/11 02:33:17;;;;;;;5.07;3.45;;;11.10;99.90;;;11.42;77.62;102381.84;5031797;28;20045;-65
2022/10/11 02:35:55;;;;;;;3.15;2.97;;;11.10;99.90;;;11.39;77.70;102379.16;5032287;28;20116;-65
2022/10/11 02:38:28;;;;;;;3.17;2.97;;;11.00;99.90;;;11.40;77.84;102375.63;5032295;28;20501;-65
2022/10/11 02:41:06;;;;;;;3.00;2.80;;;11.10;99.90;;;11.40;77.57;102377.41;5032322;28;20045;-64
2022/10/11 02:43:39;;;;;;;3.92;3.10;;;11.10;99.90;;;11.36;77.67;102371.16;5032849;28;20053;-65
2022/10/11 02:46:09;;;;;;;3.10;2.90;;;11.10;99.90;;;11.40;77.63;102380.06;5031182;28;20072;-65
2022/10/11 02:48:38;;;;;;;6.93;3.78;;;11.10;99.90;;;11.42;77.77;102371.25;5032488;28;20069;-65
2022/10/11 02:51:13;;;;;;;4.65;3.33;;;11.10;99.90;;;11.40;77.95;102378.28;5031046;28;20391;-65
2022/10/11 02:53:42;;;;;;;3.90;2.90;;;11.10;99.90;;;11.33;78.31;102386.09;5032381;28;20152;-65
2022/10/11 02:56:10;;;;;;;2.70;2.60;;;11.00;99.90;;;11.20;78.37;102385.03;5032068;28;20049;-65
2022/10/11 02:58:38;;;;;;;3.78;3.42;;;10.90;99.90;;;11.10;77.71;102388.38;5032084;28;20041;-65
2022/10/11 03:01:06;;;;;;;5.15;3.90;;;10.80;99.90;;;11.04;78.30;102384.72;5032353;28;20049;-65
2022/10/11 03:03:35;;;;;;;7.35;3.30;;;10.80;99.90;;;11.07;78.73;102385.66;5032004;28;20406;-65
2022/10/11 03:06:04;;;;;;;6.72;3.60;;;10.70;99.90;;;11.15;78.51;102393.75;5032031;28;20048;-64
2022/10/11 03:08:35;;;;;;;3.90;3.50;;;10.80;99.90;;;11.07;78.97;102387.44;5032290;28;20069;-65
2022/10/11 03:11:03;;;;;;;7.63;3.93;;;10.70;99.90;;;11.15;79.09;102389.31;5032049;28;20038;-65
2022/10/11 03:13:31;;;;;;;7.63;4.10;;;10.80;99.90;;;11.25;79.78;102400.97;5031893;28;20358;-65
2022/10/11 03:15:59;;;;;;;5.45;3.25;;;10.80;99.90;;;11.18;78.93;102394.69;5031948;28;20095;-65
2022/10/11 03:18:34;;;;;;;7.90;4.32;;;10.80;99.90;;;11.31;79.03;102401.97;5032081;28;20100;-65
2022/10/11 03:21:02;;;;;;;6.85;3.97;;;10.90;99.90;;;11.40;79.08;102399.47;5032268;28;20052;-65
2022/10/11 03:23:31;;;;;;;6.75;4.15;;;11.00;99.90;;;11.37;79.45;102402.09;5032269;28;20057;-65
2022/10/11 03:26:00;;;;;;;12.77;4.32;;;11.10;99.90;;;11.42;79.30;102404.81;5032031;28;20042;-65
2022/10/11 03:28:29;;;;;;;8.52;4.60;;;11.10;99.90;;;11.55;79.21;102394.47;5032328;28;20054;-65
2022/10/11 03:30:58;;;;;;;11.55;4.68;;;11.20;99.90;;;11.66;79.14;102392.88;5032004;28;20045;-65
2022/10/11 03:33:26;;;;;;;11.52;4.47;;;11.30;99.90;;;11.74;78.47;102396.56;5032158;28;20037;-65
2022/10/11 03:35:54;;;;;;;7.20;4.00;;;11.40;99.90;;;11.76;78.75;102400.13;5031931;28;20042;-65
2022/10/11 03:38:23;;;;;;;8.85;3.78;;;11.40;99.90;;;11.83;78.40;102403.75;5031936;28;20041;-65
2022/10/11 03:40:51;;;;;;;13.93;4.80;;;11.50;99.90;;;11.41;77.92;102326.19;5032250;28;20045;-65
2022/10/11 03:43:21;;;;;;;16.25;4.93;;;11.60;99.90;;;11.85;77.55;102403.75;5034082;28;20064;-65
2022/10/11 03:45:49;;;;;;;8.82;3.70;;;11.50;99.90;;;11.80;77.69;102409.00;5036064;28;20053;-65
2022/10/11 03:48:17;;;;;;;11.25;3.70;;;11.50;99.90;;;11.92;77.76;102401.25;5035694;28;20499;-65
2022/10/11 03:50:45;;;;;;;10.82;4.63;;;11.60;99.90;;;11.87;77.84;102412.63;5035363;28;20041;-66
2022/10/11 03:53:14;;;;;;;14.57;5.53;;;11.50;99.90;;;11.86;77.53;102405.56;5035157;28;20046;-66
2022/10/11 03:55:42;;;;;;;14.32;5.45;;;11.60;99.90;;;11.81;77.56;102401.94;5035175;28;20048;-65
2022/10/11 03:58:10;;;;;;;10.15;4.72;;;11.50;99.90;;;11.95;77.08;102406.56;5035715;28;20056;-66
2022/10/11 04:00:40;;;;;;;17.25;5.40;;;11.60;99.90;;;11.96;76.83;102412.78;5035075;28;20045;-65
2022/10/11 04:03:08;;;;;;;17.25;5.40;;;11.60;99.90;;;11.98;76.41;102408.41;5035376;28;20172;-65
2022/10/11 04:05:36;;;;;;;11.82;5.82;;;11.70;99.90;;;12.07;75.99;102413.81;5034956;28;20428;-64
2022/10/11 04:08:05;;;;;;;9.23;4.18;;;11.70;99.90;;;12.07;76.39;102414.72;5035221;28;20037;-64
2022/10/11 04:10:39;;;;;;;15.43;5.50;;;11.70;99.90;;;12.02;76.53;102412.88;5033840;28;20056;-65
2022/10/11 04:13:09;;;;;;;10.65;4.60;;;11.70;99.90;;;12.04;76.32;102416.44;5034958;28;20399;-65
2022/10/11 04:15:40;;;;;;;12.10;5.55;;;11.70;99.90;;;12.02;75.96;102418.19;5034854;28;20049;-65
2022/10/11 04:18:09;;;;;;;10.85;4.97;;;11.70;99.90;;;11.99;76.02;102415.47;5034790;28;20041;-65
2022/10/11 04:20:37;;;;;;;9.68;4.82;;;11.60;99.90;;;12.03;75.81;102418.19;5035183;28;20099;-65
2022/10/11 04:23:06;;;;;;;12.88;5.88;;;11.70;99.90;;;12.11;75.66;102418.31;5034689;28;20045;-65
2022/10/11 04:25:34;;;;;;;17.40;6.50;;;11.70;99.90;;;12.18;75.66;102433.41;5033474;28;20045;-65
2022/10/11 04:28:02;;;;;;;18.85;5.05;;;11.80;99.90;;;12.24;75.98;102433.50;5034556;28;20052;-65
2022/10/11 04:30:30;;;;;;;11.00;5.13;;;11.80;99.90;;;12.23;76.63;102435.25;5034451;28;20049;-65
2022/10/11 04:33:00;;;;;;;10.95;4.60;;;11.80;99.90;;;12.29;76.43;102429.19;5034488;28;20406;-65
2022/10/11 04:35:28;;;;;;;12.18;5.03;;;12.00;99.90;;;12.15;76.04;102394.50;5034638;28;20380;-65
2022/10/11 04:37:57;;;;;;;12.38;4.85;;;12.00;99.90;;;12.42;75.76;102432.00;5034359;28;20037;-65
2022/10/11 04:40:25;;;;;;;14.35;4.88;;;12.10;99.90;;;12.41;75.22;102431.97;5033226;28;20341;-65
2022/10/11 04:42:53;;;;;;;15.38;4.95;;;12.00;99.90;;;12.41;74.69;102430.22;5033151;28;20046;-65
2022/10/11 04:45:22;;;;;;;10.43;4.78;;;12.00;99.90;;;12.44;74.38;102437.34;5033156;28;20482;-65
2022/10/11 04:47:50;;;;;;;16.80;4.95;;;12.10;99.90;;;12.45;74.11;102434.69;5034419;28;20049;-65
2022/10/11 04:50:19;;;;;;;15.05;4.88;;;12.10;99.90;;;12.50;74.72;102440.06;5034063;28;20045;-65
2022/10/11 04:52:48;;;;;;;8.20;4.15;;;12.10;99.90;;;12.37;75.40;102417.78;5033881;28;20052;-64
2022/10/11 04:55:16;;;;;;;8.93;4.60;;;12.10;99.90;;;12.40;76.07;102436.41;5033284;28;20041;-65
2022/10/11 04:57:44;;;;;;;11.48;4.53;;;12.10;99.90;;;12.37;75.49;102443.41;5034199;28;20072;-65
2022/10/11 05:00:14;;;;;;;15.20;5.32;;;12.00;99.90;;;12.42;74.82;102441.72;5033844;28;20428;-65
2022/10/11 05:02:42;;;;;;;13.90;5.60;;;12.00;99.90;;;12.44;74.80;102446.19;5033888;28;20119;-65
2022/10/11 05:05:11;;;;;;;13.77;4.60;;;12.00;99.90;;;12.52;74.53;102441.00;5033983;28;20041;-65
2022/10/11 05:07:41;;;;;;;16.38;5.60;;;12.10;99.90;;;12.53;74.28;102446.31;5032606;28;20052;-65
2022/10/11 05:10:10;;;;;;;20.58;5.75;;;12.20;99.90;;;12.53;74.09;102445.41;5033745;28;20515;-65
2022/10/11 05:12:38;;;;;;;11.50;4.97;;;12.20;99.90;;;12.59;73.79;102450.78;5033741;28;20414;-65
2022/10/11 05:15:09;;;;;;;15.23;5.55;;;12.20;99.90;;;12.55;73.66;102452.53;5032406;28;20460;-65
2022/10/11 05:17:37;;;;;;;17.13;5.20;;;12.30;99.90;;;12.61;73.55;102455.25;5033621;28;20041;-65
2022/10/11 05:20:07;;;;;;;16.63;5.70;;;12.20;99.90;;;12.65;73.11;102462.41;5032487;28;20132;-65
2022/10/11 05:22:35;;;;;;;13.63;5.13;;;12.30;99.90;;;12.69;73.12;102464.22;5033674;28;20376;-65
2022/10/11 05:25:06;;;;;;;14.30;5.32;;;12.30;99.90;;;12.76;72.78;102470.47;5032285;28;20537;-65
2022/10/11 05:27:34;;;;;;;13.90;5.75;;;12.40;99.90;;;12.74;73.24;102455.44;5033229;28;20132;-65
2022/10/11 05:30:02;;;;;;;12.73;5.03;;;12.40;99.90;;;12.78;72.73;102460.78;5033319;28;20049;-65
2022/10/11 05:32:31;;;;;;;12.05;4.65;;;12.40;99.90;;;12.76;73.24;102467.81;5033503;28;20073;-65
2022/10/11 05:34:59;;;;;;;11.13;4.65;;;12.40;99.90;;;12.76;73.56;102470.47;5033056;28;20042;-65
2022/10/11 05:37:27;;;;;;;12.07;5.63;;;12.40;99.90;;;12.69;73.34;102476.59;5033039;28;20041;-66
2022/10/11 05:39:55;;;;;;;12.45;4.50;;;12.40;99.90;;;12.65;73.88;102466.81;5032011;28;20095;-67
2022/10/11 05:42:25;;;;;;;12.60;4.50;;;12.30;99.90;;;12.72;74.21;102473.09;5033085;28;20566;-64
2022/10/11 05:44:53;;;;;;;7.07;3.92;;;12.30;99.90;;;12.66;74.48;102479.19;5033603;28;20148;-64
2022/10/11 05:47:22;;;;;;;8.50;3.80;;;12.30;99.90;;;12.56;74.99;102485.28;5032918;28;20046;-65
2022/10/11 05:49:50;;;;;;;10.43;4.78;;;12.30;99.90;;;12.52;75.53;102483.47;5033506;28;20045;-65
2022/10/11 05:52:20;;;;;;;17.25;5.78;;;12.10;99.90;;;12.54;75.18;102485.25;5033144;28;20073;-65
2022/10/11 05:54:48;;;;;;;11.88;4.82;;;12.20;99.90;;;12.67;74.98;102481.00;5033025;28;20417;-64
2022/10/11 05:57:17;;;;;;;12.43;5.10;;;12.20;99.90;;;12.58;74.52;102487.06;5032995;28;20049;-65
2022/10/11 05:59:46;;;;;;;14.95;5.63;;;12.20;99.90;;;12.53;74.53;102495.84;5032757;28;20049;-64
2022/10/11 06:02:15;;;;;;;13.38;5.70;;;12.20;99.90;;;12.60;74.17;102495.06;5032677;28;20053;-65
2022/10/11 06:04:44;;;;;;;8.77;4.88;;;12.20;99.90;;;12.58;73.90;102489.72;5032696;28;20042;-65
2022/10/11 06:07:12;;;;;;;9.68;4.10;;;12.20;99.90;;;12.54;74.41;102492.34;5032524;28;20099;-65
2022/10/11 06:09:40;;;;;;;10.40;4.75;;;12.20;99.90;;;12.54;74.43;102497.66;5031672;28;20503;-65
2022/10/11 06:12:08;;;;;;;15.20;5.88;;;12.20;99.90;;;12.58;74.34;102497.69;5032601;28;20030;-65
2022/10/11 06:14:37;;;;;;;12.93;5.05;;;12.20;99.90;;;12.64;73.84;102499.53;5033058;28;20049;-65
2022/10/11 06:17:06;;;;;;;14.32;5.50;;;12.30;99.90;;;12.67;73.69;102504.88;5032939;28;20038;-65
2022/10/11 06:19:35;;;;;;;15.52;6.13;;;12.30;99.90;;;12.67;73.69;102502.25;5032873;28;20053;-65
2022/10/11 06:22:03;;;;;;;13.50;5.28;;;12.40;99.90;;;12.65;73.70;102498.66;5032897;28;20041;-64
2022/10/11 06:24:31;;;;;;;9.52;4.50;;;12.30;99.90;;;12.59;74.17;102502.13;5032477;28;20056;-65
2022/10/11 06:27:00;;;;;;;9.48;4.40;;;12.30;99.90;;;12.63;74.33;102506.63;5032541;28;20045;-64
2022/10/11 06:29:28;;;;;;;10.02;5.00;;;12.30;99.90;;;12.68;74.39;102510.22;5032539;28;20117;-64
2022/10/11 06:31:57;;;;;;;10.27;5.32;;;12.30;99.90;;;12.72;74.47;102516.44;5032445;28;20042;-65
2022/10/11 06:34:26;;;;;;;12.73;5.75;;;12.40;99.90;;;12.79;74.38;102518.34;5032308;28;20113;-65
2022/10/11 06:36:55;;;;;;;16.30;4.30;;;12.40;99.90;;;12.81;74.48;102510.38;5032417;28;20057;-65
2022/10/11 06:39:23;;;;;;;9.88;4.07;;;12.50;99.90;;;12.80;74.72;102513.91;5032835;28;20045;-65
2022/10/11 06:41:51;;;;;;;16.38;5.20;;;12.50;99.90;;;12.79;74.60;102518.34;5032509;28;20052;-65
2022/10/11 06:44:19;;;;;;;12.65;4.35;;;12.50;99.90;;;12.87;74.98;102518.44;5032381;28;20057;-64
2022/10/11 06:46:48;;;;;;;11.63;4.18;;;12.50;99.90;;;13.01;75.46;102522.13;5032606;28;20041;-65
2022/10/11 06:49:16;;;;;;;13.02;4.78;;;12.60;99.90;;;13.17;74.99;102526.78;5032910;28;20051;-65
2022/10/11 06:51:51;;;;;;;19.48;5.63;;;12.80;99.90;;;13.34;74.28;102533.19;5032422;28;20124;-65
2022/10/11 06:54:20;;;;;;;18.63;5.55;;;13.00;99.90;;;13.43;73.88;102528.84;5032831;28;20363;-65
2022/10/11 06:56:48;;;;;;;11.60;5.20;;;13.10;99.90;;;13.69;73.79;102534.44;5031340;28;20041;-67
2022/10/11 06:59:16;;;;;;;13.95;5.15;;;13.30;99.90;;;13.87;73.19;102539.03;5032513;28;20049;-65
2022/10/11 07:01:44;;;;;;;15.88;5.75;;;13.60;99.90;;;14.07;73.21;102537.44;5032697;28;20095;-65
2022/10/11 07:04:13;;;;;;;9.82;4.53;;;13.70;99.90;;;14.19;72.69;102553.50;5032435;28;20103;-65
2022/10/11 07:06:41;;;;;;;10.48;4.78;;;13.90;99.90;;;14.29;72.74;102523.44;5032155;28;20049;-65
2022/10/11 07:09:11;;;;;;;16.40;5.10;;;14.10;99.90;;;14.71;72.38;102549.47;5031150;28;20522;-65
2022/10/11 07:11:40;;;;;;;14.32;4.57;;;14.30;99.90;;;14.92;71.44;102552.22;5032148;28;20038;-69
2022/10/11 07:14:09;;;;;;;15.55;5.15;;;14.60;99.90;;;15.14;70.49;102551.44;5032001;28;20377;-68
2022/10/11 07:16:37;;;;;;;19.83;5.07;;;14.80;99.90;;;15.32;69.73;102557.72;5032140;28;20042;-71
2022/10/11 07:19:06;;;;;;;17.10;5.00;;;15.00;99.90;;;15.46;68.84;102548.91;5034917;28;20088;-69
2022/10/11 07:21:35;;;;;;;16.48;5.75;;;15.10;99.90;;;15.59;68.77;102562.28;5036080;28;20091;-70
2022/10/11 07:24:04;;;;;;;16.90;5.10;;;15.30;99.90;;;15.87;68.19;102560.56;5035841;28;20034;-70
2022/10/11 07:26:34;;;;;;;18.02;5.38;;;15.50;99.90;;;16.02;67.51;102560.56;5036003;28;20541;-68
2022/10/11 07:29:07;;;;;;;17.27;5.95;;;15.70;99.90;;;16.22;66.67;102562.31;5035395;28;20513;-68
2022/10/11 07:31:38;;;;;;;20.98;6.57;;;15.90;99.90;;;16.45;65.78;102570.34;5035617;28;20041;-71
2022/10/11 07:34:06;;;;;;;16.35;6.20;;;16.10;99.90;;;16.64;64.91;102577.47;5035850;28;20061;-68
2022/10/11 07:36:35;;;;;;;17.52;6.10;;;16.30;99.90;;;16.77;64.79;102572.97;5050995;28;20065;-70
2022/10/11 07:39:05;;;;;;;14.77;5.35;;;16.50;99.90;;;16.94;64.38;102580.03;5034305;28;20495;-70
2022/10/11 07:41:35;;;;;;;;;;;16.70;99.90;;;17.14;64.34;102583.53;5035839;28;20129;-68
2022/10/11 07:44:07;;;;;;;15.00;5.53;;;16.90;99.90;;;17.36;64.29;102587.03;5035389;28;20443;-67
2022/10/11 07:46:36;;;;;;;15.98;5.50;;;17.20;99.90;;;17.62;64.72;102582.44;5035513;28;20045;-69
2022/10/11 07:49:04;;;;;;;15.40;6.00;;;17.50;99.90;;;17.82;63.63;102571.59;5035412;28;20410;-68
2022/10/11 07:51:33;;;;;;;16.33;5.90;;;17.70;99.90;;;18.07;63.18;102583.91;5035629;28;20466;-69
2022/10/11 07:54:03;;;;;;;16.55;6.32;;;17.80;99.90;;;18.21;62.89;102581.13;5035711;28;20055;-67
2022/10/11 07:56:38;;;;;;;13.95;5.57;;;18.00;99.90;;;18.53;63.21;102595.16;5035420;28;20051;-67
2022/10/11 07:59:07;;;;;;;17.90;6.18;;;18.30;99.90;;;18.71;63.30;102594.97;5035641;28;20037;-67
2022/10/11 08:01:35;;;;;;;13.00;5.70;;;18.40;99.90;;;18.85;63.05;102591.22;5035241;28;20041;-66
2022/10/11 08:04:04;;;;;;;15.55;5.78;;;18.60;99.90;;;19.06;62.89;102592.81;5035409;28;20050;-66
2022/10/11 08:06:32;;;;;;;18.27;6.43;;;18.80;99.90;;;19.20;62.62;102579.22;5035123;28;20041;-66
2022/10/11 08:09:01;;;;;;;24.08;6.65;;;19.20;99.90;;;19.58;61.27;102603.78;5035260;28;20136;-68
2022/10/11 08:11:31;;;;;;;16.00;6.20;;;19.30;99.90;;;19.67;60.80;102603.66;5034987;28;20409;-67
2022/10/11 08:14:04;;;;;;;16.40;6.40;;;19.40;99.90;;;19.61;59.55;102603.72;5035334;28;20069;-67
2022/10/11 08:16:32;;;;;;;16.15;6.32;;;19.40;99.90;;;19.64;60.00;102598.34;5034903;28;20136;-67
2022/10/11 08:19:01;;;;;;;17.33;5.82;;;19.40;99.90;;;19.81;60.10;102607.03;5034961;28;20049;-67
2022/10/11 08:21:30;;;;;;;14.75;6.53;;;19.60;99.90;;;19.98;60.08;102604.97;5035075;28;20064;-67
2022/10/11 08:23:58;;;;;;;14.40;5.43;;;19.70;99.90;;;20.16;60.12;102618.13;5034825;28;20116;-67
2022/10/11 08:26:27;;;;;;;16.52;5.72;;;19.90;99.90;;;20.37;59.50;102617.81;5035337;28;20055;-67
2022/10/11 08:28:55;;;;;;;17.83;6.38;;;20.10;99.90;;;20.48;58.89;102618.50;5034931;28;20053;-68
2022/10/11 08:31:25;;;;;;;15.77;6.30;;;20.30;99.90;;;20.68;58.73;102621.75;5034539;28;20049;-67
2022/10/11 08:33:53;;;;;;;18.60;6.63;;;20.50;99.90;;;20.84;58.13;102624.16;5034570;28;20041;-67
2022/10/11 08:36:21;;;;;;;18.60;6.95;;;20.60;99.90;;;21.05;58.16;102626.47;5034471;28;20041;-67
2022/10/11 08:38:50;;;;;;;17.60;6.45;;;20.80;99.90;;;21.32;57.17;102626.81;5034573;28;20463;-66
2022/10/11 08:41:32;;;;;;;17.58;6.22;;;21.10;99.90;;;21.53;54.80;102631.72;5034416;28;20124;-67
2022/10/11 08:44:20;;;;;;;19.63;6.68;;;21.30;99.90;;;21.51;53.47;102638.06;5034407;28;20491;-67
2022/10/11 08:46:57;;;;;;;14.55;5.95;;;21.30;99.90;;;21.56;52.62;102634.34;5034535;28;20483;-67
2022/10/11 08:49:32;;;;;;;17.40;6.28;;;21.40;99.90;;;21.72;53.41;102645.69;5034638;28;20045;-67
2022/10/11 08:52:04;;;;;;;19.08;6.40;;;21.50;99.90;;;21.85;52.50;102644.53;5034833;28;20041;-67
2022/10/11 08:54:43;;;;;;;19.00;6.35;;;21.60;99.90;;;22.14;52.34;102643.84;5034376;28;20411;-68
2022/10/11 08:57:15;;;;;;;18.63;6.43;;;21.80;99.90;;;22.37;51.75;102650.47;5033914;28;20083;-68
2022/10/11 08:59:50;;;;;;;16.65;6.32;;;22.10;99.90;;;22.49;51.16;102645.69;5034302;28;20049;-67
2022/10/11 09:02:35;;;;;;;16.05;5.50;;;22.20;99.90;;;22.62;50.17;102639.06;5034181;28;20049;-67
2022/10/11 09:05:31;;;;;;;15.20;5.22;;;22.30;99.90;;;22.82;47.47;102648.41;5033850;28;20072;-68
2022/10/11 09:08:08;;;;;;;20.13;6.38;;;22.50;99.90;;;22.93;46.65;102653.53;5033856;28;20045;-68
2022/10/11 09:10:55;;;;;;;14.20;5.25;;;22.60;99.90;;;22.97;46.67;102652.53;5033811;28;20052;-69
2022/10/11 09:13:42;;;;;;;16.42;5.72;;;22.70;99.90;;;22.83;47.15;102650.19;5034062;28;20041;-71
2022/10/11 09:16:23;;;;;;;14.10;5.05;;;22.60;99.90;;;22.51;46.75;102647.44;5049160;28;20046;-69
2022/10/11 09:19:15;;;;;;;15.70;5.03;;;22.30;99.90;;;22.32;47.01;102655.06;5033659;28;20041;-69
2022/10/11 09:21:50;;;;;;;12.77;5.07;;;22.00;99.90;;;22.26;47.53;102651.66;5032454;28;20530;-69
2022/10/11 09:24:36;;;;;;;15.52;5.00;;;21.90;99.90;;;22.09;47.43;102646.66;5033384;28;20041;-72
2022/10/11 09:27:18;;;;;;;16.25;5.13;;;21.80;99.90;;;21.88;47.94;102654.34;5033276;28;20136;-71
2022/10/11 09:29:56;;;;;;;16.55;5.05;;;21.60;99.90;;;21.71;48.75;102653.78;5033382;28;20063;-71
2022/10/11 09:32:31;;;;;;;15.93;4.82;;;21.40;99.90;;;21.54;49.22;102644.25;5033781;28;20084;-70
2022/10/11 09:35:13;;;;;;;14.18;4.45;;;21.20;99.90;;;21.39;48.81;102654.47;5033420;28;20051;-72
2022/10/11 09:37:51;;;;;;;11.43;4.30;;;21.00;99.90;;;21.25;48.05;102652.06;5033354;28;20041;-71
2022/10/11 09:40:36;;;;;;;16.00;4.70;;;20.90;99.90;;;21.23;48.59;102663.78;5032839;28;20045;-71
2022/10/11 09:43:04;;;;;;;13.35;4.38;;;20.90;99.90;;;21.12;49.10;102652.31;5033373;28;20046;-71
2022/10/11 09:45:33;;;;;;;11.63;4.13;;;20.70;99.90;;;21.00;48.52;102647.16;5032301;28;20042;-70
2022/10/11 09:48:05;;;;;;;11.68;4.22;;;20.60;99.90;;;20.87;49.00;102654.56;5033253;28;20128;-71
2022/10/11 09:50:35;;;;;;;15.43;4.32;;;20.60;99.90;;;20.75;49.83;102652.09;5033196;28;20491;-70
2022/10/11 09:53:06;;;;;;;12.43;4.60;;;20.40;99.90;;;20.63;50.06;102655.88;5033109;28;20041;-70
2022/10/11 09:55:38;;;;;;;14.07;4.32;;;20.30;99.90;;;20.49;50.11;102655.25;5033311;28;20471;-69
2022/10/11 09:58:29;;;;;;;11.25;4.03;;;20.20;99.90;;;20.32;50.81;102643.00;5033036;28;20060;-70
2022/10/11 10:01:00;;;;;;;10.90;4.05;;;20.00;99.90;;;20.25;51.16;102646.69;5033713;28;20042;-70
2022/10/11 10:03:37;;;;;;;12.35;4.65;;;19.90;99.90;;;20.09;51.48;102648.69;5033219;28;20079;-69
2022/10/11 10:06:15;;;;;;;15.05;3.97;;;19.80;99.90;;;19.99;51.49;102660.50;5033150;28;20049;-69
2022/10/11 10:08:45;;;;;;;12.68;4.03;;;19.60;99.90;;;20.03;52.17;102651.50;5033303;28;20047;-68
2022/10/11 10:11:15;;;;;;;14.43;4.40;;;19.60;99.90;;;20.01;51.83;102647.94;5031992;28;20060;-68
2022/10/11 10:13:48;;;;;;;15.98;4.55;;;19.70;99.90;;;20.27;51.72;102628.72;5033074;28;20037;-68
2022/10/11 10:16:26;;;;;;;15.40;4.70;;;20.00;99.90;;;20.40;50.79;102657.22;5033132;28;20048;-69
2022/10/11 10:18:57;;;;;;;15.32;4.35;;;20.00;99.90;;;20.34;51.08;102651.94;5033043;28;20041;-68
2022/10/11 10:21:31;;;;;;;10.20;3.75;;;20.00;99.90;;;20.34;51.63;102663.53;5031714;28;20073;-70
2022/10/11 10:24:03;;;;;;;12.77;3.90;;;20.00;99.90;;;20.45;51.70;102645.47;5032850;28;20045;-68
2022/10/11 10:26:32;;;;;;;11.45;4.43;;;20.10;99.90;;;20.41;51.49;102646.44;5032854;28;20483;-68
2022/10/11 10:29:09;;;;;;;13.45;4.05;;;20.10;99.90;;;20.30;51.31;102645.72;5032118;28;20049;-68